sensor_id;sensor_type;location;lat;lon;timestamp;P1;durP1;ratioP1;P2;durP2;ratioP2
4676;SDS011;2352;48.180;11.478;2023-03-07T00:01:34;12.30;;;11.00;;
4676;SDS011;2352;48.180;11.478;2023-03-07T00:04:37;16.07;;;10.70;;
4676;SDS011;2352;48.180;11.478;2023-03-07T00:07:40;12.10;;;10.97;;
4676;SDS011;2352;48.180;11.478;2023-03-07T00:10:43;12.97;;;11.63;;
4676;SDS011;2352;48.180;11.478;2023-03-07T00:13:46;16.33;;;11.90;;
4676;SDS011;2352;48.180;11.478;2023-03-07T00:16:50;12.63;;;11.33;;
4676;SDS011;2352;48.180;11.478;2023-03-07T00:19:53;11.87;;;10.87;;
4676;SDS011;2352;48.180;11.478;2023-03-07T00:22:56;11.70;;;10.60;;
4676;SDS011;2352;48.180;11.478;2023-03-07T00:25:59;12.43;;;10.20;;
4676;SDS011;2352;48.180;11.478;2023-03-07T00:29:04;11.90;;;10.67;;
4676;SDS011;2352;48.180;11.478;2023-03-07T00:32:09;13.00;;;11.73;;
4676;SDS011;2352;48.180;11.478;2023-03-07T00:35:12;11.33;;;10.23;;
4676;SDS011;2352;48.180;11.478;2023-03-07T00:38:15;13.63;;;11.50;;
4676;SDS011;2352;48.180;11.478;2023-03-07T00:41:18;10.67;;;9.60;;
4676;SDS011;2352;48.180;11.478;2023-03-07T00:44:22;13.00;;;11.70;;
4676;SDS011;2352;48.180;11.478;2023-03-07T00:47:28;11.87;;;10.67;;
4676;SDS011;2352;48.180;11.478;2023-03-07T00:50:31;14.33;;;10.73;;
4676;SDS011;2352;48.180;11.478;2023-03-07T00:53:36;12.67;;;11.40;;
4676;SDS011;2352;48.180;11.478;2023-03-07T00:56:39;11.53;;;10.43;;
4676;SDS011;2352;48.180;11.478;2023-03-07T00:59:42;13.27;;;11.10;;
4676;SDS011;2352;48.180;11.478;2023-03-07T01:02:47;11.83;;;10.70;;
4676;SDS011;2352;48.180;11.478;2023-03-07T01:05:52;13.20;;;11.80;;
4676;SDS011;2352;48.180;11.478;2023-03-07T01:08:56;13.13;;;11.37;;
4676;SDS011;2352;48.180;11.478;2023-03-07T01:12:00;12.53;;;11.23;;
4676;SDS011;2352;48.180;11.478;2023-03-07T01:15:07;12.53;;;11.33;;
4676;SDS011;2352;48.180;11.478;2023-03-07T01:18:12;12.37;;;11.07;;
4676;SDS011;2352;48.180;11.478;2023-03-07T01:21:15;10.87;;;9.77;;
4676;SDS011;2352;48.180;11.478;2023-03-07T01:24:19;11.37;;;10.27;;
4676;SDS011;2352;48.180;11.478;2023-03-07T01:27:22;12.50;;;11.20;;
4676;SDS011;2352;48.180;11.478;2023-03-07T01:30:25;10.57;;;9.47;;
4676;SDS011;2352;48.180;11.478;2023-03-07T01:33:29;13.87;;;10.00;;
4676;SDS011;2352;48.180;11.478;2023-03-07T01:36:33;14.80;;;10.30;;
4676;SDS011;2352;48.180;11.478;2023-03-07T01:39:37;12.63;;;9.90;;
4676;SDS011;2352;48.180;11.478;2023-03-07T01:42:40;16.50;;;10.40;;
4676;SDS011;2352;48.180;11.478;2023-03-07T01:49:29;9.90;;;8.90;;
4676;SDS011;2352;48.180;11.478;2023-03-07T01:52:36;10.63;;;9.57;;
4676;SDS011;2352;48.180;11.478;2023-03-07T01:55:41;10.97;;;8.70;;
4676;SDS011;2352;48.180;11.478;2023-03-07T01:58:44;9.90;;;9.00;;
4676;SDS011;2352;48.180;11.478;2023-03-07T02:01:48;10.33;;;9.43;;
4676;SDS011;2352;48.180;11.478;2023-03-07T02:04:55;9.90;;;8.97;;
4676;SDS011;2352;48.180;11.478;2023-03-07T02:08:02;9.77;;;8.67;;
4676;SDS011;2352;48.180;11.478;2023-03-07T02:11:08;10.63;;;9.33;;
4676;SDS011;2352;48.180;11.478;2023-03-07T02:14:12;10.07;;;9.07;;
4676;SDS011;2352;48.180;11.478;2023-03-07T02:17:15;10.00;;;9.07;;
4676;SDS011;2352;48.180;11.478;2023-03-07T02:20:24;10.13;;;9.23;;
4676;SDS011;2352;48.180;11.478;2023-03-07T02:23:35;10.53;;;9.53;;
4676;SDS011;2352;48.180;11.478;2023-03-07T02:26:45;10.30;;;9.43;;
4676;SDS011;2352;48.180;11.478;2023-03-07T02:29:49;10.60;;;9.50;;
4676;SDS011;2352;48.180;11.478;2023-03-07T02:32:52;10.70;;;9.17;;
4676;SDS011;2352;48.180;11.478;2023-03-07T02:35:55;9.50;;;8.60;;
4676;SDS011;2352;48.180;11.478;2023-03-07T02:39:01;9.63;;;8.77;;
4676;SDS011;2352;48.180;11.478;2023-03-07T02:42:09;8.97;;;8.07;;
4676;SDS011;2352;48.180;11.478;2023-03-07T02:45:16;9.00;;;7.80;;
4676;SDS011;2352;48.180;11.478;2023-03-07T02:48:20;11.87;;;9.30;;
4676;SDS011;2352;48.180;11.478;2023-03-07T02:51:23;10.03;;;9.00;;
4676;SDS011;2352;48.180;11.478;2023-03-07T02:54:26;10.10;;;9.10;;
4676;SDS011;2352;48.180;11.478;2023-03-07T02:57:30;11.13;;;8.43;;
4676;SDS011;2352;48.180;11.478;2023-03-07T03:00:33;10.43;;;9.47;;
4676;SDS011;2352;48.180;11.478;2023-03-07T03:03:37;9.57;;;8.57;;
4676;SDS011;2352;48.180;11.478;2023-03-07T03:06:40;9.63;;;8.53;;
4676;SDS011;2352;48.180;11.478;2023-03-07T03:09:43;10.73;;;9.13;;
4676;SDS011;2352;48.180;11.478;2023-03-07T03:12:47;10.63;;;9.50;;
4676;SDS011;2352;48.180;11.478;2023-03-07T03:15:53;9.47;;;8.47;;
4676;SDS011;2352;48.180;11.478;2023-03-07T03:18:56;9.50;;;8.50;;
4676;SDS011;2352;48.180;11.478;2023-03-07T03:22:00;9.43;;;8.47;;
4676;SDS011;2352;48.180;11.478;2023-03-07T03:25:05;8.90;;;8.10;;
4676;SDS011;2352;48.180;11.478;2023-03-07T03:28:11;9.30;;;8.40;;
4676;SDS011;2352;48.180;11.478;2023-03-07T03:31:14;9.77;;;8.33;;
4676;SDS011;2352;48.180;11.478;2023-03-07T03:34:18;9.83;;;8.53;;
4676;SDS011;2352;48.180;11.478;2023-03-07T03:37:21;9.27;;;8.37;;
4676;SDS011;2352;48.180;11.478;2023-03-07T03:40:24;9.27;;;8.37;;
4676;SDS011;2352;48.180;11.478;2023-03-07T03:43:28;8.50;;;7.70;;
4676;SDS011;2352;48.180;11.478;2023-03-07T03:46:31;8.83;;;7.97;;
4676;SDS011;2352;48.180;11.478;2023-03-07T03:49:34;9.10;;;8.20;;
4676;SDS011;2352;48.180;11.478;2023-03-07T03:52:36;10.07;;;9.07;;
4676;SDS011;2352;48.180;11.478;2023-03-07T03:55:39;10.07;;;8.23;;
4676;SDS011;2352;48.180;11.478;2023-03-07T03:58:45;9.37;;;8.53;;
4676;SDS011;2352;48.180;11.478;2023-03-07T04:01:48;9.80;;;8.83;;
4676;SDS011;2352;48.180;11.478;2023-03-07T04:04:51;9.30;;;8.50;;
4676;SDS011;2352;48.180;11.478;2023-03-07T04:07:54;12.27;;;7.93;;
4676;SDS011;2352;48.180;11.478;2023-03-07T04:10:57;8.50;;;7.67;;
4676;SDS011;2352;48.180;11.478;2023-03-07T04:14:01;9.10;;;8.30;;
4676;SDS011;2352;48.180;11.478;2023-03-07T04:17:05;9.30;;;8.40;;
4676;SDS011;2352;48.180;11.478;2023-03-07T04:20:08;9.33;;;8.43;;
4676;SDS011;2352;48.180;11.478;2023-03-07T04:23:18;10.27;;;8.77;;
4676;SDS011;2352;48.180;11.478;2023-03-07T04:26:21;9.97;;;8.43;;
4676;SDS011;2352;48.180;11.478;2023-03-07T04:29:26;9.17;;;8.37;;
4676;SDS011;2352;48.180;11.478;2023-03-07T04:32:30;10.33;;;9.23;;
4676;SDS011;2352;48.180;11.478;2023-03-07T04:35:33;11.17;;;8.20;;
4676;SDS011;2352;48.180;11.478;2023-03-07T04:38:36;8.30;;;7.53;;
4676;SDS011;2352;48.180;11.478;2023-03-07T04:41:40;11.10;;;9.00;;
4676;SDS011;2352;48.180;11.478;2023-03-07T04:44:44;9.00;;;8.20;;
4676;SDS011;2352;48.180;11.478;2023-03-07T04:47:47;9.50;;;8.43;;
4676;SDS011;2352;48.180;11.478;2023-03-07T04:50:50;12.03;;;8.63;;
4676;SDS011;2352;48.180;11.478;2023-03-07T04:53:53;10.73;;;9.13;;
4676;SDS011;2352;48.180;11.478;2023-03-07T04:56:56;9.23;;;8.33;;
4676;SDS011;2352;48.180;11.478;2023-03-07T05:00:00;9.63;;;8.70;;
4676;SDS011;2352;48.180;11.478;2023-03-07T05:03:03;8.90;;;8.10;;
4676;SDS011;2352;48.180;11.478;2023-03-07T05:06:07;9.80;;;8.80;;
4676;SDS011;2352;48.180;11.478;2023-03-07T05:09:13;9.57;;;8.67;;
4676;SDS011;2352;48.180;11.478;2023-03-07T05:12:17;11.00;;;8.37;;
4676;SDS011;2352;48.180;11.478;2023-03-07T05:15:21;9.13;;;8.23;;
4676;SDS011;2352;48.180;11.478;2023-03-07T05:18:24;8.70;;;7.80;;
4676;SDS011;2352;48.180;11.478;2023-03-07T05:21:27;9.07;;;8.23;;
4676;SDS011;2352;48.180;11.478;2023-03-07T05:24:30;9.53;;;8.60;;
4676;SDS011;2352;48.180;11.478;2023-03-07T05:27:33;8.53;;;7.80;;
4676;SDS011;2352;48.180;11.478;2023-03-07T05:30:37;9.33;;;8.43;;
4676;SDS011;2352;48.180;11.478;2023-03-07T05:33:40;7.93;;;7.13;;
4676;SDS011;2352;48.180;11.478;2023-03-07T05:36:43;9.10;;;8.33;;
4676;SDS011;2352;48.180;11.478;2023-03-07T05:39:46;10.07;;;9.00;;
4676;SDS011;2352;48.180;11.478;2023-03-07T05:42:49;7.93;;;7.13;;
4676;SDS011;2352;48.180;11.478;2023-03-07T05:45:53;12.33;;;8.63;;
4676;SDS011;2352;48.180;11.478;2023-03-07T05:48:56;10.00;;;8.30;;
4676;SDS011;2352;48.180;11.478;2023-03-07T05:51:59;9.67;;;8.83;;
4676;SDS011;2352;48.180;11.478;2023-03-07T05:55:02;10.30;;;8.27;;
4676;SDS011;2352;48.180;11.478;2023-03-07T05:58:05;10.80;;;9.80;;
4676;SDS011;2352;48.180;11.478;2023-03-07T06:01:10;11.67;;;9.53;;
4676;SDS011;2352;48.180;11.478;2023-03-07T06:04:13;10.00;;;8.23;;
4676;SDS011;2352;48.180;11.478;2023-03-07T06:07:16;8.67;;;7.77;;
4676;SDS011;2352;48.180;11.478;2023-03-07T06:10:19;9.37;;;8.47;;
4676;SDS011;2352;48.180;11.478;2023-03-07T06:13:22;12.80;;;9.30;;
4676;SDS011;2352;48.180;11.478;2023-03-07T06:16:27;9.33;;;8.27;;
4676;SDS011;2352;48.180;11.478;2023-03-07T06:19:30;8.43;;;7.73;;
4676;SDS011;2352;48.180;11.478;2023-03-07T06:22:34;9.87;;;8.83;;
4676;SDS011;2352;48.180;11.478;2023-03-07T06:25:38;10.03;;;7.20;;
4676;SDS011;2352;48.180;11.478;2023-03-07T06:28:41;11.13;;;9.80;;
4676;SDS011;2352;48.180;11.478;2023-03-07T06:31:46;8.83;;;8.03;;
4676;SDS011;2352;48.180;11.478;2023-03-07T06:34:49;13.00;;;9.40;;
4676;SDS011;2352;48.180;11.478;2023-03-07T06:37:51;12.77;;;10.47;;
4676;SDS011;2352;48.180;11.478;2023-03-07T06:40:54;13.00;;;10.13;;
4676;SDS011;2352;48.180;11.478;2023-03-07T06:43:57;10.33;;;9.23;;
4676;SDS011;2352;48.180;11.478;2023-03-07T06:47:02;13.83;;;11.30;;
4676;SDS011;2352;48.180;11.478;2023-03-07T06:50:05;9.00;;;7.90;;
4676;SDS011;2352;48.180;11.478;2023-03-07T06:53:09;11.77;;;10.00;;
4676;SDS011;2352;48.180;11.478;2023-03-07T06:56:12;10.90;;;9.53;;
4676;SDS011;2352;48.180;11.478;2023-03-07T06:59:15;11.17;;;9.00;;
4676;SDS011;2352;48.180;11.478;2023-03-07T07:02:19;10.73;;;7.97;;
4676;SDS011;2352;48.180;11.478;2023-03-07T07:05:22;12.07;;;9.53;;
4676;SDS011;2352;48.180;11.478;2023-03-07T07:08:25;10.13;;;9.03;;
4676;SDS011;2352;48.180;11.478;2023-03-07T07:11:28;9.47;;;7.93;;
4676;SDS011;2352;48.180;11.478;2023-03-07T07:14:31;14.43;;;10.50;;
4676;SDS011;2352;48.180;11.478;2023-03-07T07:17:36;10.37;;;7.63;;
4676;SDS011;2352;48.180;11.478;2023-03-07T07:20:39;13.93;;;8.47;;
4676;SDS011;2352;48.180;11.478;2023-03-07T07:23:42;8.63;;;7.80;;
4676;SDS011;2352;48.180;11.478;2023-03-07T07:26:45;10.30;;;9.43;;
4676;SDS011;2352;48.180;11.478;2023-03-07T07:29:48;9.60;;;8.43;;
4676;SDS011;2352;48.180;11.478;2023-03-07T07:32:53;9.30;;;8.23;;
4676;SDS011;2352;48.180;11.478;2023-03-07T07:35:56;8.77;;;7.97;;
4676;SDS011;2352;48.180;11.478;2023-03-07T07:39:00;9.97;;;8.93;;
4676;SDS011;2352;48.180;11.478;2023-03-07T07:42:04;9.77;;;8.40;;
4676;SDS011;2352;48.180;11.478;2023-03-07T07:45:07;9.03;;;8.13;;
4676;SDS011;2352;48.180;11.478;2023-03-07T07:48:12;8.77;;;7.97;;
4676;SDS011;2352;48.180;11.478;2023-03-07T07:51:15;9.43;;;7.83;;
4676;SDS011;2352;48.180;11.478;2023-03-07T07:54:18;9.57;;;8.67;;
4676;SDS011;2352;48.180;11.478;2023-03-07T07:57:21;10.87;;;8.07;;
4676;SDS011;2352;48.180;11.478;2023-03-07T08:00:24;9.70;;;8.37;;
4676;SDS011;2352;48.180;11.478;2023-03-07T08:03:28;8.47;;;7.57;;
4676;SDS011;2352;48.180;11.478;2023-03-07T08:06:31;8.97;;;8.23;;
4676;SDS011;2352;48.180;11.478;2023-03-07T08:09:34;8.17;;;7.47;;
4676;SDS011;2352;48.180;11.478;2023-03-07T08:12:39;7.97;;;7.27;;
4676;SDS011;2352;48.180;11.478;2023-03-07T08:15:41;11.03;;;7.70;;
4676;SDS011;2352;48.180;11.478;2023-03-07T08:18:48;8.00;;;7.30;;
4676;SDS011;2352;48.180;11.478;2023-03-07T08:21:51;7.33;;;6.63;;
4676;SDS011;2352;48.180;11.478;2023-03-07T08:24:54;10.60;;;7.17;;
4676;SDS011;2352;48.180;11.478;2023-03-07T08:27:57;8.30;;;7.60;;
4676;SDS011;2352;48.180;11.478;2023-03-07T08:31:06;9.03;;;8.23;;
4676;SDS011;2352;48.180;11.478;2023-03-07T08:34:11;9.20;;;8.30;;
4676;SDS011;2352;48.180;11.478;2023-03-07T08:37:14;9.43;;;7.37;;
4676;SDS011;2352;48.180;11.478;2023-03-07T08:40:16;8.00;;;7.27;;
4676;SDS011;2352;48.180;11.478;2023-03-07T08:43:19;6.60;;;6.00;;
4676;SDS011;2352;48.180;11.478;2023-03-07T08:46:22;7.47;;;6.83;;
4676;SDS011;2352;48.180;11.478;2023-03-07T08:49:27;8.80;;;7.27;;
4676;SDS011;2352;48.180;11.478;2023-03-07T08:52:29;10.30;;;8.07;;
4676;SDS011;2352;48.180;11.478;2023-03-07T08:55:33;8.17;;;7.47;;
4676;SDS011;2352;48.180;11.478;2023-03-07T08:58:37;8.73;;;7.20;;
4676;SDS011;2352;48.180;11.478;2023-03-07T09:01:40;7.17;;;6.33;;
4676;SDS011;2352;48.180;11.478;2023-03-07T09:04:44;7.77;;;6.97;;
4676;SDS011;2352;48.180;11.478;2023-03-07T09:07:47;6.80;;;6.17;;
4676;SDS011;2352;48.180;11.478;2023-03-07T09:10:50;6.70;;;6.10;;
4676;SDS011;2352;48.180;11.478;2023-03-07T09:13:53;8.90;;;6.53;;
4676;SDS011;2352;48.180;11.478;2023-03-07T09:16:56;8.00;;;7.20;;
4676;SDS011;2352;48.180;11.478;2023-03-07T09:20:00;8.63;;;7.83;;
4676;SDS011;2352;48.180;11.478;2023-03-07T09:23:04;8.87;;;7.73;;
4676;SDS011;2352;48.180;11.478;2023-03-07T09:26:08;8.80;;;7.47;;
4676;SDS011;2352;48.180;11.478;2023-03-07T09:29:11;10.53;;;7.53;;
4676;SDS011;2352;48.180;11.478;2023-03-07T09:32:14;7.47;;;6.70;;
4676;SDS011;2352;48.180;11.478;2023-03-07T09:35:18;8.20;;;7.47;;
4676;SDS011;2352;48.180;11.478;2023-03-07T09:38:21;7.90;;;7.10;;
4676;SDS011;2352;48.180;11.478;2023-03-07T09:41:29;7.93;;;6.70;;
4676;SDS011;2352;48.180;11.478;2023-03-07T09:44:56;8.60;;;6.70;;
4676;SDS011;2352;48.180;11.478;2023-03-07T09:48:16;9.27;;;7.00;;
4676;SDS011;2352;48.180;11.478;2023-03-07T09:51:40;7.67;;;6.97;;
4676;SDS011;2352;48.180;11.478;2023-03-07T09:54:45;13.07;;;7.27;;
4676;SDS011;2352;48.180;11.478;2023-03-07T09:57:53;8.37;;;7.43;;
4676;SDS011;2352;48.180;11.478;2023-03-07T10:00:59;11.47;;;8.17;;
4676;SDS011;2352;48.180;11.478;2023-03-07T10:04:04;8.47;;;7.23;;
4676;SDS011;2352;48.180;11.478;2023-03-07T10:07:15;9.20;;;7.57;;
4676;SDS011;2352;48.180;11.478;2023-03-07T10:10:21;7.67;;;6.87;;
4676;SDS011;2352;48.180;11.478;2023-03-07T10:13:30;8.93;;;7.43;;
4676;SDS011;2352;48.180;11.478;2023-03-07T10:16:44;7.73;;;6.93;;
4676;SDS011;2352;48.180;11.478;2023-03-07T10:19:51;8.30;;;7.50;;
4676;SDS011;2352;48.180;11.478;2023-03-07T10:23:00;9.43;;;8.53;;
4676;SDS011;2352;48.180;11.478;2023-03-07T10:26:12;8.80;;;7.80;;
4676;SDS011;2352;48.180;11.478;2023-03-07T10:29:18;12.23;;;6.97;;
4676;SDS011;2352;48.180;11.478;2023-03-07T10:32:28;9.83;;;7.63;;
4676;SDS011;2352;48.180;11.478;2023-03-07T10:35:37;14.17;;;8.23;;
4676;SDS011;2352;48.180;11.478;2023-03-07T10:38:44;7.57;;;6.87;;
4676;SDS011;2352;48.180;11.478;2023-03-07T10:41:56;7.80;;;6.80;;
4676;SDS011;2352;48.180;11.478;2023-03-07T10:44:59;10.23;;;7.80;;
4676;SDS011;2352;48.180;11.478;2023-03-07T10:48:04;17.63;;;8.13;;
4676;SDS011;2352;48.180;11.478;2023-03-07T10:51:11;8.17;;;7.37;;
4676;SDS011;2352;48.180;11.478;2023-03-07T10:54:30;10.47;;;8.00;;
4676;SDS011;2352;48.180;11.478;2023-03-07T10:57:34;7.97;;;7.27;;
4676;SDS011;2352;48.180;11.478;2023-03-07T11:00:37;7.87;;;7.07;;
4676;SDS011;2352;48.180;11.478;2023-03-07T11:03:40;7.53;;;6.87;;
4676;SDS011;2352;48.180;11.478;2023-03-07T11:06:55;8.17;;;7.37;;
4676;SDS011;2352;48.180;11.478;2023-03-07T11:10:04;8.93;;;7.67;;
4676;SDS011;2352;48.180;11.478;2023-03-07T11:13:28;9.30;;;7.67;;
4676;SDS011;2352;48.180;11.478;2023-03-07T11:16:32;8.53;;;7.60;;
4676;SDS011;2352;48.180;11.478;2023-03-07T11:19:36;8.63;;;7.73;;
4676;SDS011;2352;48.180;11.478;2023-03-07T11:22:41;8.00;;;7.20;;
4676;SDS011;2352;48.180;11.478;2023-03-07T11:25:45;8.80;;;8.00;;
4676;SDS011;2352;48.180;11.478;2023-03-07T11:28:48;8.57;;;7.77;;
4676;SDS011;2352;48.180;11.478;2023-03-07T11:32:10;8.43;;;7.63;;
4676;SDS011;2352;48.180;11.478;2023-03-07T11:35:17;9.13;;;8.20;;
4676;SDS011;2352;48.180;11.478;2023-03-07T11:38:36;9.07;;;8.13;;
4676;SDS011;2352;48.180;11.478;2023-03-07T11:41:46;9.93;;;8.77;;
4676;SDS011;2352;48.180;11.478;2023-03-07T11:44:53;8.93;;;8.13;;
4676;SDS011;2352;48.180;11.478;2023-03-07T11:48:04;8.87;;;8.00;;
4676;SDS011;2352;48.180;11.478;2023-03-07T11:51:20;9.10;;;8.20;;
4676;SDS011;2352;48.180;11.478;2023-03-07T11:54:35;8.20;;;7.47;;
4676;SDS011;2352;48.180;11.478;2023-03-07T11:57:52;8.97;;;8.03;;
4676;SDS011;2352;48.180;11.478;2023-03-07T12:01:06;8.67;;;7.73;;
4676;SDS011;2352;48.180;11.478;2023-03-07T12:04:37;9.27;;;8.47;;
4676;SDS011;2352;48.180;11.478;2023-03-07T12:08:05;10.77;;;7.53;;
4676;SDS011;2352;48.180;11.478;2023-03-07T12:11:30;8.20;;;7.40;;
4676;SDS011;2352;48.180;11.478;2023-03-07T12:15:03;8.07;;;7.40;;
4676;SDS011;2352;48.180;11.478;2023-03-07T12:18:28;10.37;;;8.03;;
4676;SDS011;2352;48.180;11.478;2023-03-07T12:21:52;8.13;;;7.43;;
4676;SDS011;2352;48.180;11.478;2023-03-07T12:25:15;8.53;;;7.67;;
4676;SDS011;2352;48.180;11.478;2023-03-07T12:28:25;7.90;;;7.20;;
4676;SDS011;2352;48.180;11.478;2023-03-07T12:31:34;8.00;;;7.30;;
4676;SDS011;2352;48.180;11.478;2023-03-07T12:34:42;8.50;;;7.70;;
4676;SDS011;2352;48.180;11.478;2023-03-07T12:37:48;8.90;;;8.10;;
4676;SDS011;2352;48.180;11.478;2023-03-07T12:40:56;8.97;;;7.20;;
4676;SDS011;2352;48.180;11.478;2023-03-07T12:44:04;8.03;;;7.33;;
4676;SDS011;2352;48.180;11.478;2023-03-07T12:47:15;8.30;;;7.43;;
4676;SDS011;2352;48.180;11.478;2023-03-07T12:50:25;11.10;;;7.90;;
4676;SDS011;2352;48.180;11.478;2023-03-07T12:53:32;8.03;;;7.27;;
4676;SDS011;2352;48.180;11.478;2023-03-07T12:56:45;7.60;;;6.80;;
4676;SDS011;2352;48.180;11.478;2023-03-07T12:59:52;9.67;;;8.67;;
4676;SDS011;2352;48.180;11.478;2023-03-07T13:03:04;8.07;;;7.23;;
4676;SDS011;2352;48.180;11.478;2023-03-07T13:06:10;9.30;;;8.40;;
4676;SDS011;2352;48.180;11.478;2023-03-07T13:09:18;8.20;;;7.43;;
4676;SDS011;2352;48.180;11.478;2023-03-07T13:12:31;8.37;;;6.40;;
4676;SDS011;2352;48.180;11.478;2023-03-07T13:23:24;9.97;;;7.93;;
4676;SDS011;2352;48.180;11.478;2023-03-07T13:26:29;8.60;;;7.80;;
4676;SDS011;2352;48.180;11.478;2023-03-07T13:33:23;7.93;;;6.90;;
4676;SDS011;2352;48.180;11.478;2023-03-07T13:36:31;7.30;;;6.63;;
4676;SDS011;2352;48.180;11.478;2023-03-07T13:39:37;8.50;;;7.60;;
4676;SDS011;2352;48.180;11.478;2023-03-07T13:42:44;8.40;;;7.27;;
4676;SDS011;2352;48.180;11.478;2023-03-07T13:45:48;8.30;;;7.50;;
4676;SDS011;2352;48.180;11.478;2023-03-07T13:48:59;12.40;;;6.80;;
4676;SDS011;2352;48.180;11.478;2023-03-07T13:52:23;7.03;;;6.43;;
4676;SDS011;2352;48.180;11.478;2023-03-07T13:55:41;8.87;;;8.07;;
4676;SDS011;2352;48.180;11.478;2023-03-07T13:58:48;7.53;;;6.83;;
4676;SDS011;2352;48.180;11.478;2023-03-07T14:01:57;7.27;;;6.67;;
4676;SDS011;2352;48.180;11.478;2023-03-07T14:05:04;7.93;;;7.23;;
4676;SDS011;2352;48.180;11.478;2023-03-07T14:08:07;7.83;;;7.03;;
4676;SDS011;2352;48.180;11.478;2023-03-07T14:11:17;7.33;;;6.73;;
4676;SDS011;2352;48.180;11.478;2023-03-07T14:14:28;8.17;;;7.10;;
4676;SDS011;2352;48.180;11.478;2023-03-07T14:17:45;8.47;;;7.40;;
4676;SDS011;2352;48.180;11.478;2023-03-07T14:20:58;8.83;;;7.50;;
4676;SDS011;2352;48.180;11.478;2023-03-07T14:24:17;8.93;;;7.73;;
4676;SDS011;2352;48.180;11.478;2023-03-07T14:27:29;6.87;;;6.30;;
4676;SDS011;2352;48.180;11.478;2023-03-07T14:30:33;7.60;;;6.90;;
4676;SDS011;2352;48.180;11.478;2023-03-07T14:33:36;8.13;;;7.40;;
4676;SDS011;2352;48.180;11.478;2023-03-07T14:36:40;7.23;;;6.53;;
4676;SDS011;2352;48.180;11.478;2023-03-07T14:39:47;8.57;;;7.73;;
4676;SDS011;2352;48.180;11.478;2023-03-07T14:43:08;8.30;;;7.37;;
4676;SDS011;2352;48.180;11.478;2023-03-07T14:46:27;8.80;;;7.93;;
4676;SDS011;2352;48.180;11.478;2023-03-07T14:49:36;7.70;;;6.93;;
4676;SDS011;2352;48.180;11.478;2023-03-07T14:52:44;7.90;;;7.10;;
4676;SDS011;2352;48.180;11.478;2023-03-07T14:55:50;7.60;;;6.87;;
4676;SDS011;2352;48.180;11.478;2023-03-07T14:58:56;8.20;;;7.40;;
4676;SDS011;2352;48.180;11.478;2023-03-07T15:02:01;9.37;;;8.07;;
4676;SDS011;2352;48.180;11.478;2023-03-07T15:05:16;7.43;;;6.83;;
4676;SDS011;2352;48.180;11.478;2023-03-07T15:08:21;8.37;;;7.63;;
4676;SDS011;2352;48.180;11.478;2023-03-07T15:11:27;7.43;;;5.93;;
4676;SDS011;2352;48.180;11.478;2023-03-07T15:14:37;7.70;;;7.00;;
4676;SDS011;2352;48.180;11.478;2023-03-07T15:17:45;7.83;;;7.00;;
4676;SDS011;2352;48.180;11.478;2023-03-07T15:20:48;7.17;;;6.57;;
4676;SDS011;2352;48.180;11.478;2023-03-07T15:23:54;7.40;;;6.73;;
4676;SDS011;2352;48.180;11.478;2023-03-07T15:26:58;8.60;;;7.80;;
4676;SDS011;2352;48.180;11.478;2023-03-07T15:30:04;7.83;;;6.87;;
4676;SDS011;2352;48.180;11.478;2023-03-07T15:33:24;8.07;;;7.37;;
4676;SDS011;2352;48.180;11.478;2023-03-07T15:36:29;7.60;;;6.90;;
4676;SDS011;2352;48.180;11.478;2023-03-07T15:39:32;8.57;;;7.10;;
4676;SDS011;2352;48.180;11.478;2023-03-07T15:42:46;9.00;;;7.97;;
4676;SDS011;2352;48.180;11.478;2023-03-07T15:45:59;11.37;;;6.93;;
4676;SDS011;2352;48.180;11.478;2023-03-07T15:49:04;8.23;;;7.53;;
4676;SDS011;2352;48.180;11.478;2023-03-07T15:52:15;7.93;;;6.43;;
4676;SDS011;2352;48.180;11.478;2023-03-07T15:55:27;9.67;;;7.10;;
4676;SDS011;2352;48.180;11.478;2023-03-07T15:58:30;10.53;;;9.37;;
4676;SDS011;2352;48.180;11.478;2023-03-07T16:01:37;8.73;;;7.50;;
4676;SDS011;2352;48.180;11.478;2023-03-07T16:04:40;8.27;;;7.33;;
4676;SDS011;2352;48.180;11.478;2023-03-07T16:07:43;8.17;;;7.37;;
4676;SDS011;2352;48.180;11.478;2023-03-07T16:10:48;7.33;;;6.63;;
4676;SDS011;2352;48.180;11.478;2023-03-07T16:13:53;7.33;;;6.63;;
4676;SDS011;2352;48.180;11.478;2023-03-07T16:16:58;8.87;;;7.97;;
4676;SDS011;2352;48.180;11.478;2023-03-07T16:20:03;9.23;;;7.27;;
4676;SDS011;2352;48.180;11.478;2023-03-07T16:23:14;8.47;;;7.17;;
4676;SDS011;2352;48.180;11.478;2023-03-07T16:26:19;7.37;;;6.73;;
4676;SDS011;2352;48.180;11.478;2023-03-07T16:29:23;10.93;;;9.20;;
4676;SDS011;2352;48.180;11.478;2023-03-07T16:32:27;10.23;;;8.37;;
4676;SDS011;2352;48.180;11.478;2023-03-07T16:35:30;8.77;;;8.00;;
4676;SDS011;2352;48.180;11.478;2023-03-07T16:38:33;8.60;;;7.43;;
4676;SDS011;2352;48.180;11.478;2023-03-07T16:41:36;9.10;;;8.10;;
4676;SDS011;2352;48.180;11.478;2023-03-07T16:44:40;10.27;;;8.27;;
4676;SDS011;2352;48.180;11.478;2023-03-07T16:47:44;9.77;;;8.60;;
4676;SDS011;2352;48.180;11.478;2023-03-07T16:50:48;8.83;;;8.00;;
4676;SDS011;2352;48.180;11.478;2023-03-07T16:53:51;9.77;;;8.87;;
4676;SDS011;2352;48.180;11.478;2023-03-07T16:56:54;10.53;;;8.87;;
4676;SDS011;2352;48.180;11.478;2023-03-07T16:59:58;11.10;;;8.57;;
4676;SDS011;2352;48.180;11.478;2023-03-07T17:03:02;8.70;;;7.87;;
4676;SDS011;2352;48.180;11.478;2023-03-07T17:06:05;11.87;;;8.73;;
4676;SDS011;2352;48.180;11.478;2023-03-07T17:09:13;11.50;;;8.73;;
4676;SDS011;2352;48.180;11.478;2023-03-07T17:12:16;10.83;;;9.07;;
4676;SDS011;2352;48.180;11.478;2023-03-07T17:15:21;10.13;;;9.23;;
4676;SDS011;2352;48.180;11.478;2023-03-07T17:18:27;9.13;;;8.27;;
4676;SDS011;2352;48.180;11.478;2023-03-07T17:21:33;9.57;;;8.70;;
4676;SDS011;2352;48.180;11.478;2023-03-07T17:24:36;13.93;;;10.30;;
4676;SDS011;2352;48.180;11.478;2023-03-07T17:27:40;12.47;;;9.27;;
4676;SDS011;2352;48.180;11.478;2023-03-07T17:30:45;10.43;;;9.43;;
4676;SDS011;2352;48.180;11.478;2023-03-07T17:33:49;11.13;;;10.03;;
4676;SDS011;2352;48.180;11.478;2023-03-07T17:36:52;9.73;;;8.80;;
4676;SDS011;2352;48.180;11.478;2023-03-07T17:39:55;11.27;;;10.13;;
4676;SDS011;2352;48.180;11.478;2023-03-07T17:42:58;12.40;;;10.40;;
4676;SDS011;2352;48.180;11.478;2023-03-07T17:46:06;10.63;;;8.90;;
4676;SDS011;2352;48.180;11.478;2023-03-07T17:49:12;11.77;;;10.13;;
4676;SDS011;2352;48.180;11.478;2023-03-07T17:52:15;10.90;;;9.87;;
4676;SDS011;2352;48.180;11.478;2023-03-07T17:55:18;11.43;;;10.43;;
4676;SDS011;2352;48.180;11.478;2023-03-07T17:58:21;12.13;;;10.93;;
4676;SDS011;2352;48.180;11.478;2023-03-07T18:01:24;16.00;;;10.30;;
4676;SDS011;2352;48.180;11.478;2023-03-07T18:04:28;13.40;;;10.50;;
4676;SDS011;2352;48.180;11.478;2023-03-07T18:07:31;13.77;;;10.27;;
4676;SDS011;2352;48.180;11.478;2023-03-07T18:10:34;12.60;;;11.20;;
4676;SDS011;2352;48.180;11.478;2023-03-07T18:13:37;12.50;;;10.93;;
4676;SDS011;2352;48.180;11.478;2023-03-07T18:16:40;17.23;;;13.10;;
4676;SDS011;2352;48.180;11.478;2023-03-07T18:19:45;14.93;;;13.47;;
4676;SDS011;2352;48.180;11.478;2023-03-07T18:22:48;16.17;;;14.47;;
4676;SDS011;2352;48.180;11.478;2023-03-07T18:25:54;20.10;;;15.43;;
4676;SDS011;2352;48.180;11.478;2023-03-07T18:28:58;19.50;;;14.47;;
4676;SDS011;2352;48.180;11.478;2023-03-07T18:32:00;20.07;;;14.53;;
4676;SDS011;2352;48.180;11.478;2023-03-07T18:35:06;16.03;;;13.47;;
4676;SDS011;2352;48.180;11.478;2023-03-07T18:38:09;18.33;;;13.57;;
4676;SDS011;2352;48.180;11.478;2023-03-07T18:41:13;16.07;;;12.10;;
4676;SDS011;2352;48.180;11.478;2023-03-07T18:44:17;13.70;;;12.13;;
4676;SDS011;2352;48.180;11.478;2023-03-07T18:47:20;17.53;;;13.70;;
4676;SDS011;2352;48.180;11.478;2023-03-07T18:50:24;17.57;;;12.43;;
4676;SDS011;2352;48.180;11.478;2023-03-07T18:53:27;14.03;;;12.63;;
4676;SDS011;2352;48.180;11.478;2023-03-07T18:56:30;17.00;;;12.77;;
4676;SDS011;2352;48.180;11.478;2023-03-07T18:59:33;13.30;;;11.67;;
4676;SDS011;2352;48.180;11.478;2023-03-07T19:02:36;14.87;;;13.37;;